Time;durP1;ratioP1;P1;durP2;ratioP2;P2;SDS_P1;SDS_P2;PMS_P1;PMS_P2;Temp;Humidity;BMP_temperature;BMP_pressure;BME280_temperature;BME280_humidity;BME280_pressure;Samples;Min_cycle;Max_cycle;Signal;HPM_P1;HPM_P2
2021/10/13 04:38:16;;;;;;;0.80;0.25;;;;;;;3.94;97.46;101506.72;5717192;24;20026;-82
2021/10/13 04:40:41;;;;;;;1.42;0.30;;;;;;;4.12;97.93;101536.16;4765071;30;20052;-83
2021/10/13 04:43:06;;;;;;;2.17;0.20;;;;;;;3.93;97.57;101501.53;4772422;30;20039;-82
2021/10/13 04:45:32;;;;;;;1.00;0.40;;;;;;;4.18;97.82;101540.94;4781293;30;20040;-82
2021/10/13 04:47:57;;;;;;;4.35;0.40;;;;;;;4.21;97.87;101538.00;4775532;30;20023;-84
2021/10/13 04:50:24;;;;;;;0.90;0.20;;;;;;;4.22;98.76;101533.50;4781049;30;20024;-84
2021/10/13 04:52:49;;;;;;;1.15;0.82;;;;;;;4.07;98.00;101514.41;4755283;30;20043;-82
2021/10/13 04:55:15;;;;;;;2.40;0.65;;;;;;;4.25;97.14;101535.88;4744655;30;20040;-83
2021/10/13 04:57:41;;;;;;;0.85;0.28;;;;;;;3.23;96.07;101376.50;4782552;24;20051;-85
2021/10/13 14:48:45;;;;;;;0.38;0.25;;;;;;;10.60;74.62;101525.75;5795284;24;20037;31
2021/10/13 14:53:45;;;;;;;1.20;0.20;;;;;;;10.45;73.52;101514.94;4863400;24;20060;-81
2021/10/13 14:56:11;;;;;;;1.85;0.30;;;;;;;10.48;73.12;101519.94;4705160;30;20121;-81
2021/10/13 14:58:36;;;;;;;1.67;0.32;;;;;;;10.43;73.41;101519.63;4746055;30;20028;-81
2021/10/13 15:01:03;;;;;;;1.42;0.30;;;;;;;10.32;73.97;101516.34;4748111;30;20033;-82
2021/10/13 15:03:29;;;;;;;3.90;0.50;;;;;;;10.24;74.23;101494.88;4723101;30;20038;-81
2021/10/13 15:05:55;;;;;;;1.95;0.60;;;;;;;10.30;74.10;101510.34;4766786;30;20051;-81
2021/10/13 15:08:22;;;;;;;1.33;0.50;;;;;;;10.27;74.52;101510.69;4756734;30;20446;-80
2021/10/13 15:10:48;;;;;;;3.47;0.40;;;;;;;10.15;74.79;101493.25;4719192;30;20036;-81
2021/10/13 15:13:14;;;;;;;5.38;0.50;;;;;;;10.22;74.95;101501.44;4729995;30;20043;-81
2021/10/13 15:15:39;;;;;;;1.48;0.68;;;;;;;10.21;74.86;101502.47;4728976;30;20071;-81
2021/10/13 15:18:05;;;;;;;2.88;0.40;;;;;;;10.20;75.16;101515.09;4760022;30;20055;-81
2021/10/13 15:20:30;;;;;;;0.93;0.40;;;;;;;10.12;75.78;101499.00;4763584;30;20341;-81
2021/10/13 15:22:58;;;;;;;2.15;0.40;;;;;;;10.10;75.89;101498.38;4762804;30;20040;-80
2021/10/13 15:25:25;;;;;;;3.38;0.70;;;;;;;10.07;76.47;101499.56;4748612;30;20046;-82
2021/10/13 15:27:51;;;;;;;2.08;0.50;;;;;;;9.96;75.87;101481.13;4748125;30;21010;-81
2021/10/13 15:30:16;;;;;;;2.22;0.43;;;;;;;10.04;76.91;101504.44;4765843;30;20024;-81
2021/10/13 15:32:43;;;;;;;1.83;0.43;;;;;;;9.88;76.68;101479.34;4765258;30;20104;-80
2021/10/13 15:35:09;;;;;;;1.55;0.40;;;;;;;9.99;77.20;101496.91;4738125;30;20041;-80
2021/10/13 15:37:36;;;;;;;3.05;0.60;;;;;;;9.94;77.51;101498.47;4763893;30;20368;-80
2021/10/13 15:40:05;;;;;;;5.35;0.50;;;;;;;9.88;78.22;101494.63;4750430;30;20036;-81
2021/10/13 15:42:31;;;;;;;2.58;0.63;;;;;;;9.85;78.33;101503.88;4764080;30;20043;-80
2021/10/13 15:44:56;;;;;;;2.10;0.40;;;;;;;9.82;78.63;101504.22;4747404;30;20035;-81
2021/10/13 15:47:21;;;;;;;2.30;0.60;;;;;;;9.78;78.89;101500.22;4744929;30;20052;-80
2021/10/13 15:49:47;;;;;;;3.40;0.65;;;;;;;9.74;79.61;101498.91;4713064;30;20051;-81
2021/10/13 15:52:14;;;;;;;2.42;0.70;;;;;;;9.67;79.75;101491.72;4747497;30;20064;-81
2021/10/13 15:54:40;;;;;;;0.90;0.40;;;;;;;9.65;79.91;101500.81;4780904;30;20051;-82
2021/10/13 15:57:07;;;;;;;2.13;0.47;;;;;;;9.60;81.37;101503.19;4784463;30;20058;-81
2021/10/13 15:59:32;;;;;;;3.00;0.57;;;;;;;9.48;81.36;101488.47;4782223;30;20039;-80
2021/10/13 16:01:58;;;;;;;5.80;0.77;;;;;;;9.47;81.40;101502.91;4764285;30;20040;-80
2021/10/13 16:04:25;;;;;;;3.20;0.70;;;;;;;9.38;82.01;101496.75;4779988;30;20024;-80
2021/10/13 16:06:50;;;;;;;1.67;0.40;;;;;;;9.31;82.88;101495.75;4747586;30;20039;-80
2021/10/13 16:09:16;;;;;;;2.17;0.60;;;;;;;9.19;82.99;101486.41;4760741;30;20251;-79
2021/10/13 16:11:41;;;;;;;4.47;1.05;;;;;;;9.22;83.78;101499.47;4780426;30;20111;-81
2021/10/13 16:14:08;;;;;;;2.88;0.77;;;;;;;9.04;84.46;101470.19;4781799;30;20027;-82
2021/10/13 16:16:33;;;;;;;3.72;0.63;;;;;;;9.08;85.12;101495.66;4782237;30;20031;-80
2021/10/13 16:18:59;;;;;;;3.72;0.63;;;;;;;8.89;85.31;101470.03;4761760;30;20039;-80
2021/10/13 16:21:24;;;;;;;5.40;0.80;;;;;;;9.03;85.18;101494.50;4743954;30;20462;-81
2021/10/13 16:23:50;;;;;;;3.92;0.90;;;;;;;8.96;85.67;101491.66;4774177;30;20049;-80
2021/10/13 16:26:16;;;;;;;3.05;0.80;;;;;;;8.98;85.67;101488.84;4773871;30;20035;-80
2021/10/13 16:28:42;;;;;;;2.90;0.80;;;;;;;8.97;86.19;101484.44;4772312;30;20036;-80
2021/10/13 16:31:09;;;;;;;6.28;0.90;;;;;;;8.95;86.20;101476.59;4748690;30;20043;-79
2021/10/13 16:33:35;;;;;;;1.38;0.68;;;;;;;8.92;86.33;101483.13;4760132;30;20111;-82
2021/10/13 16:36:01;;;;;;;3.50;0.90;;;;;;;8.70;86.94;101446.28;4771623;30;20109;-81
2021/10/13 16:38:26;;;;;;;4.68;0.90;;;;;;;8.78;86.64;101451.63;4766952;30;20467;-82
2021/10/13 16:40:52;;;;;;;2.97;0.90;;;;;;;8.89;87.23;101464.69;4776995;30;20063;-82
2021/10/13 16:43:17;;;;;;;2.20;0.88;;;;;;;8.81;87.41;101456.66;4775922;30;20075;-81
2021/10/13 16:45:45;;;;;;;4.00;0.90;;;;;;;8.81;88.21;101464.72;4774746;30;20067;-82
2021/10/13 16:48:11;;;;;;;4.65;0.77;;;;;;;8.75;88.41;101460.03;4762640;30;20023;-82
2021/10/13 16:50:36;;;;;;;4.95;0.88;;;;;;;8.78;88.68;101461.53;4780264;30;20071;-82
2021/10/13 16:53:02;;;;;;;2.35;0.80;;;;;;;8.51;88.21;101420.69;4768388;30;20075;-82
2021/10/13 16:55:27;;;;;;;2.65;0.70;;;;;;;8.62;89.22;101435.56;4790179;29;20052;-82
2021/10/13 17:13:01;;;;;;;2.15;0.90;;;;;;;8.66;90.38;101461.03;5776390;24;20031;31
2021/10/13 17:28:23;;;;;;;11.00;5.07;;;;;;;8.59;91.73;101466.25;5797892;24;20154;-80
2021/10/13 17:30:50;;;;;;;8.95;5.40;;;;;;;7.78;91.52;101335.75;4812106;29;20019;-82
2021/10/13 17:33:15;;;;;;;7.20;3.17;;;;;;;7.29;91.53;101275.00;5038957;24;20055;-84
2021/10/13 17:35:41;;;;;;;4.90;3.10;;;;;;;8.39;91.14;101444.31;4811445;29;20039;-84
2021/10/13 17:40:43;;;;;;;22.30;13.02;;;;;;;7.13;91.18;101223.28;4871252;24;20051;-82
2021/10/13 17:43:09;;;;;;;44.35;25.58;;;;;;;7.36;91.39;101267.13;4802784;29;20517;-82
2021/10/13 17:45:35;;;;;;;35.72;20.75;;;;;;;7.20;91.61;101229.66;4807669;29;20030;-84
2021/10/13 17:48:01;;;;;;;31.38;17.27;;;;;;;7.35;91.75;101278.84;4808111;29;20035;-82
2021/10/13 17:50:28;;;;;;;23.15;13.50;;;;;;;7.36;91.87;101253.75;4824955;29;20038;-80
2021/10/13 17:55:29;;;;;;;8.15;4.50;;;;;;;7.65;91.55;101320.22;4817133;24;20067;-82
2021/10/13 17:57:54;;;;;;;9.10;4.22;;;;;;;7.46;91.23;101270.47;4790072;30;20245;-82
2021/10/13 18:00:20;;;;;;;6.90;3.70;;;;;;;7.77;91.70;101320.69;4806438;30;20031;-83
2021/10/13 18:02:45;;;;;;;7.15;3.40;;;;;;;7.57;91.79;101285.38;4805941;30;20074;-83
2021/10/13 18:05:12;;;;;;;5.97;3.35;;;;;;;7.82;92.26;101331.75;4794002;30;20031;-81
2021/10/13 18:07:39;;;;;;;4.53;2.00;;;;;;;7.74;92.02;101329.88;4795179;30;20035;-81
2021/10/13 18:10:06;;;;;;;7.13;2.97;;;;;;;8.26;92.71;101387.66;4802339;29;20031;-83
2021/10/13 18:12:34;;;;;;;9.98;5.85;;;;;;;8.59;92.08;101450.16;4807439;29;20042;-84
2021/10/13 18:15:01;;;;;;;11.32;6.90;;;;;;;7.82;92.33;101310.31;4794156;30;20031;-80
2021/10/13 18:17:26;;;;;;;9.10;5.07;;;;;;;7.92;92.47;101335.09;4781058;30;20106;-80
2021/10/13 18:19:52;;;;;;;9.48;5.20;;;;;;;8.64;92.22;101439.75;4780800;30;20059;-80
2021/10/13 18:22:17;;;;;;;7.50;4.70;;;;;;;8.65;92.61;101445.97;4795887;30;20031;-80
2021/10/13 18:24:43;;;;;;;11.30;5.75;;;;;;;8.54;92.40;101419.47;4780813;30;20044;-83
2021/10/13 18:27:10;;;;;;;9.50;5.13;;;;;;;8.68;92.59;101441.09;4791874;30;20056;-82
2021/10/13 18:29:35;;;;;;;22.30;15.82;;;;;;;8.62;92.52;101427.53;4809679;30;20092;-82
2021/10/13 18:32:01;;;;;;;20.13;13.23;;;;;;;8.70;92.12;101440.91;4790123;30;20047;-82
2021/10/13 18:34:27;;;;;;;10.68;7.50;;;;;;;8.69;92.37;101439.25;4783037;30;20119;-82
2021/10/13 18:36:54;;;;;;;20.35;12.77;;;;;;;8.73;92.75;101445.94;4762955;30;20062;-81
2021/10/13 18:39:20;;;;;;;14.27;10.40;;;;;;;7.35;92.49;101217.28;4838909;24;20083;-78
2021/10/13 18:41:46;;;;;;;10.38;6.82;;;;;;;7.71;92.51;101275.81;4789422;30;20047;-82
2021/10/13 18:44:12;;;;;;;8.80;5.50;;;;;;;8.10;92.39;101326.84;4792265;30;20035;-81
2021/10/13 18:46:37;;;;;;;10.63;7.25;;;;;;;8.74;92.31;101426.16;4787803;30;20123;-82
2021/10/13 18:49:03;;;;;;;8.77;6.80;;;;;;;7.96;92.35;101306.09;4804145;30;20035;-82
2021/10/13 18:51:29;;;;;;;5.13;3.70;;;;;;;7.50;92.13;101244.22;4805757;29;20035;-81
2021/10/13 18:53:55;;;;;;;3.03;1.73;;;;;;;8.31;91.99;101366.53;4788162;30;20035;-82
2021/10/13 18:56:20;;;;;;;3.55;2.20;;;;;;;7.86;91.50;101284.84;4800053;30;20054;-83
2021/10/13 18:58:46;;;;;;;3.78;2.47;;;;;;;8.42;91.96;101390.34;4798795;30;20031;-82
2021/10/13 19:01:13;;;;;;;5.20;3.42;;;;;;;7.63;91.24;101241.03;4785640;30;20031;-81
2021/10/13 19:03:39;;;;;;;2.85;1.40;;;;;;;7.95;91.37;101291.88;4803216;29;20020;-83
2021/10/13 19:06:04;;;;;;;2.67;1.10;;;;;;;7.64;91.32;101229.28;4802737;30;20054;-82
2021/10/13 19:08:30;;;;;;;3.72;1.63;;;;;;;8.96;91.04;101446.03;4779777;30;20032;-82
2021/10/13 19:10:56;;;;;;;12.18;6.53;;;;;;;8.12;90.75;101308.78;4794880;30;20039;-81
2021/10/13 19:13:22;;;;;;;7.50;4.00;;;;;;;8.08;90.91;101303.91;4782041;30;20041;-80
2021/10/13 19:15:51;;;;;;;3.47;1.60;;;;;;;7.88;90.52;101264.09;4805534;30;20092;-82
2021/10/13 19:18:18;;;;;;;7.60;3.00;;;;;;;8.16;90.57;101299.38;4793558;30;20070;-82
2021/10/13 19:20:45;;;;;;;4.10;1.08;;;;;;;8.19;90.47;101282.13;4791866;30;20098;-83
2021/10/13 19:25:45;;;;;;;2.80;0.40;;;;;;;8.54;89.28;101310.34;5439404;24;20054;-81
2021/10/13 19:30:48;;;;;;;2.88;0.50;;;;;;;9.54;88.33;101422.47;5663435;24;20062;-82
2021/10/13 19:33:23;;;;;;;2.08;0.63;;;;;;;9.70;87.77;101432.25;5088018;24;20157;-81
2021/10/13 19:35:48;;;;;;;2.67;0.60;;;;;;;9.67;86.59;101428.09;4815849;29;20019;-83
2021/10/13 19:38:14;;;;;;;2.10;0.60;;;;;;;8.17;86.83;101198.34;4958581;24;20084;-82
2021/10/13 19:40:40;;;;;;;4.28;0.90;;;;;;;9.72;86.14;101444.50;4775491;30;20027;-83
2021/10/13 19:43:05;;;;;;;6.35;3.10;;;;;;;8.26;86.79;101218.75;4773127;30;20023;-81
2021/10/13 19:45:31;;;;;;;11.60;8.25;;;;;;;9.69;86.96;101425.22;4789535;30;20023;-81
2021/10/13 19:47:58;;;;;;;11.73;9.13;;;;;;;8.47;87.23;101232.41;4789276;30;20018;-82
2021/10/13 19:50:23;;;;;;;6.80;3.20;;;;;;;8.52;87.49;101250.69;4857860;24;20127;-82
2021/10/13 19:52:49;;;;;;;9.07;5.03;;;;;;;8.58;86.99;101257.19;4759582;30;20078;-82
2021/10/13 19:55:15;;;;;;;12.52;6.35;;;;;;;9.00;87.49;101326.56;4769707;30;20032;-83
2021/10/13 19:57:41;;;;;;;8.18;3.60;;;;;;;8.54;87.11;101261.22;4770747;30;20028;-83
2021/10/13 20:00:07;;;;;;;2.00;0.77;;;;;;;8.75;86.54;101280.25;4763835;30;20059;-82
2021/10/13 20:02:33;;;;;;;8.25;3.75;;;;;;;8.81;85.98;101286.78;4758553;30;20039;-81
2021/10/13 20:05:00;;;;;;;4.47;1.65;;;;;;;8.99;85.45;101326.75;4762196;30;20032;-83
2021/10/13 20:07:25;;;;;;;3.85;1.30;;;;;;;8.36;84.81;101229.25;4774940;30;20023;-84
2021/10/13 20:09:51;;;;;;;3.40;0.77;;;;;;;8.36;85.32;101232.78;4767021;30;20088;-83
2021/10/13 20:12:18;;;;;;;3.80;0.60;;;;;;;8.51;85.13;101256.19;4764933;30;20036;-81
2021/10/13 20:14:43;;;;;;;3.33;0.65;;;;;;;8.65;85.63;101279.63;4765036;30;20111;-82
2021/10/13 20:17:09;;;;;;;2.00;0.52;;;;;;;8.30;85.50;101248.72;4763962;30;20459;-80
2021/10/13 20:19:36;;;;;;;2.55;0.60;;;;;;;8.05;85.25;101200.56;4761558;30;20067;-83
2021/10/13 20:22:03;;;;;;;2.58;0.50;;;;;;;8.24;85.35;101224.31;4781396;30;20024;-83
2021/10/13 20:24:29;;;;;;;2.58;0.50;;;;;;;9.07;84.96;101353.53;4757325;30;20036;-81
2021/10/13 20:26:54;;;;;;;1.60;0.50;;;;;;;8.40;84.79;101241.34;4758367;30;20348;-82
2021/10/13 20:29:20;;;;;;;2.05;0.60;;;;;;;8.32;84.56;101220.75;4768582;30;20035;-81
2021/10/13 20:31:45;;;;;;;3.40;0.60;;;;;;;8.34;84.37;101232.09;4769670;30;20028;-81
2021/10/13 20:34:13;;;;;;;3.90;0.60;;;;;;;8.79;84.04;101313.75;4752863;30;20043;-81
2021/10/13 20:36:39;;;;;;;3.05;0.70;;;;;;;8.70;83.68;101279.94;4758090;30;20032;-82
2021/10/13 20:39:05;;;;;;;1.20;0.50;;;;;;;8.98;82.70;101331.28;4761490;30;20035;-82
2021/10/13 20:41:35;;;;;;;0.90;0.50;;;;;;;8.38;82.97;101232.66;4765149;29;20103;-82
2021/10/13 20:44:01;;;;;;;1.50;0.50;;;;;;;8.10;83.06;101187.47;4758510;30;20048;-81
2021/10/13 20:46:27;;;;;;;2.72;0.50;;;;;;;8.12;83.05;101187.31;4778255;30;20032;-82
2021/10/13 20:48:52;;;;;;;1.33;0.47;;;;;;;8.05;82.88;101178.31;4747391;30;20053;-82
2021/10/13 20:51:17;;;;;;;5.35;0.90;;;;;;;8.74;83.13;101301.88;4757593;30;20044;-81
2021/10/13 20:53:43;;;;;;;1.63;0.63;;;;;;;9.42;83.55;101405.91;4738685;30;20044;-80
2021/10/13 20:56:10;;;;;;;2.88;0.50;;;;;;;9.42;82.79;101405.91;4773848;30;20040;-83
2021/10/13 20:58:35;;;;;;;2.40;0.80;;;;;;;9.38;83.57;101405.41;4765223;30;20035;-83
2021/10/13 21:01:01;;;;;;;2.00;0.70;;;;;;;9.36;83.58;101402.06;4759153;30;20012;-84
2021/10/13 21:03:26;;;;;;;2.55;0.70;;;;;;;9.28;83.92;101390.53;4777144;30;20040;-81
2021/10/13 21:05:51;;;;;;;1.83;0.50;;;;;;;9.27;84.00;101392.41;4772945;30;20024;-82
2021/10/13 21:08:17;;;;;;;2.60;0.70;;;;;;;9.36;83.10;101402.06;4769018;30;20044;-84
2021/10/13 21:13:16;;;;;;;3.67;0.60;;;;;;;7.96;82.53;101172.97;5001770;24;20118;-83
2021/10/13 21:15:42;;;;;;;2.30;0.68;;;;;;;7.85;83.02;101161.78;4801268;29;20126;-83
2021/10/13 21:18:08;;;;;;;1.95;0.70;;;;;;;8.30;82.67;101212.03;4779668;30;20435;-81
2021/10/13 21:20:33;;;;;;;3.92;0.80;;;;;;;8.03;83.08;101189.19;4792586;30;20031;-81
2021/10/13 21:22:59;;;;;;;2.08;0.70;;;;;;;8.43;83.28;101257.91;4790590;30;20435;-81
2021/10/13 21:25:26;;;;;;;1.17;0.50;;;;;;;9.23;83.41;101372.25;4763514;30;20035;-80
2021/10/13 21:27:51;;;;;;;1.27;0.60;;;;;;;9.08;83.44;101349.88;4767486;30;20034;-80
2021/10/13 21:30:18;;;;;;;2.90;0.60;;;;;;;9.08;83.55;101347.19;4765495;30;20031;-80
2021/10/13 21:32:44;;;;;;;2.00;0.70;;;;;;;9.19;83.53;101362.88;4787146;30;20458;-81
2021/10/13 21:35:09;;;;;;;1.95;0.70;;;;;;;9.18;83.32;101362.06;4780448;30;20054;-82
2021/10/13 21:37:35;;;;;;;1.70;0.50;;;;;;;9.20;83.25;101361.88;4761088;30;20055;-82
2021/10/13 21:40:02;;;;;;;0.82;0.50;;;;;;;9.15;83.47;101350.84;4793488;30;20035;-82
2021/10/13 21:42:27;;;;;;;2.28;0.60;;;;;;;9.17;82.74;101356.84;4781790;30;20039;-81
2021/10/13 21:44:54;;;;;;;1.77;0.50;;;;;;;9.15;82.79;101354.34;4780239;30;20035;-82
2021/10/13 21:47:19;;;;;;;3.88;0.50;;;;;;;9.15;83.36;101354.34;4798101;29;20042;-82
2021/10/13 21:49:45;;;;;;;1.70;0.60;;;;;;;9.09;82.56;101343.47;4803054;30;20047;-81
2021/10/13 21:52:13;;;;;;;2.90;0.70;;;;;;;9.10;82.62;101343.28;4802450;30;20070;-82
2021/10/13 21:54:39;;;;;;;1.17;0.50;;;;;;;9.14;82.98;101346.47;4788227;30;20035;-82
2021/10/13 21:57:04;;;;;;;7.40;1.10;;;;;;;9.15;83.09;101350.84;4802142;30;20057;-80
2021/10/13 21:59:30;;;;;;;0.75;0.50;;;;;;;9.07;82.28;101329.38;4785337;30;20028;-82
2021/10/13 22:01:57;;;;;;;1.58;0.50;;;;;;;9.08;82.59;101336.44;4783526;30;20044;-82
2021/10/13 22:04:23;;;;;;;2.13;0.70;;;;;;;9.06;83.21;101331.22;4799693;30;20036;-82
2021/10/13 22:06:48;;;;;;;3.28;0.60;;;;;;;9.15;82.90;101342.78;4783890;30;20027;-81
2021/10/13 22:09:14;;;;;;;1.55;0.60;;;;;;;9.14;83.09;101336.56;4795275;30;20063;-81
2021/10/13 22:11:42;;;;;;;2.25;0.60;;;;;;;9.16;82.61;101328.31;4765013;30;20139;-81
2021/10/13 22:14:09;;;;;;;2.38;0.68;;;;;;;9.04;82.35;101295.69;4768761;30;20538;-81
2021/10/13 22:16:35;;;;;;;2.03;0.25;;;;;;;9.14;82.22;101315.09;4782432;30;20181;-82
2021/10/13 22:19:00;;;;;;;1.25;0.57;;;;;;;9.11;81.22;101298.50;4763715;30;20055;-82
2021/10/13 22:21:26;;;;;;;2.47;0.60;;;;;;;9.15;80.53;101310.56;4791899;30;20023;-81
2021/10/13 22:23:51;;;;;;;2.63;0.70;;;;;;;9.14;79.86;101307.03;4780477;30;20105;-82
2021/10/13 22:26:17;;;;;;;1.38;0.55;;;;;;;9.10;79.87;101292.28;4782969;30;20048;-81
2021/10/13 22:28:42;;;;;;;2.28;0.60;;;;;;;9.03;80.51;101285.13;4764403;30;20074;-81
2021/10/13 22:31:08;;;;;;;1.48;0.73;;;;;;;9.09;79.97;101303.22;4774165;30;20031;-81
2021/10/13 22:33:33;;;;;;;3.90;0.63;;;;;;;9.06;80.41;101298.19;4777801;30;20078;-81
2021/10/13 22:35:59;;;;;;;2.42;0.60;;;;;;;9.06;80.09;101296.34;4765548;30;20035;-82
2021/10/13 22:38:24;;;;;;;3.13;0.60;;;;;;;9.09;80.49;101289.78;4782572;30;20497;-82
2021/10/13 22:40:49;;;;;;;1.73;0.60;;;;;;;8.97;80.85;101277.78;4781905;30;20047;-82
2021/10/13 22:43:15;;;;;;;2.88;0.80;;;;;;;9.05;80.92;101288.47;4780692;30;20046;-81
2021/10/13 22:45:40;;;;;;;2.08;0.55;;;;;;;8.99;81.44;101275.75;4781901;30;20051;-81
2021/10/13 22:48:06;;;;;;;1.65;0.60;;;;;;;9.06;81.41;101282.09;4762475;30;20035;-81
2021/10/13 22:50:32;;;;;;;1.23;0.43;;;;;;;9.04;82.04;101282.28;4740385;30;20067;-82
2021/10/13 22:53:00;;;;;;;5.15;0.77;;;;;;;9.03;81.93;101275.22;4772435;30;20103;-81
2021/10/13 22:55:28;;;;;;;1.83;0.60;;;;;;;9.04;82.11;101265.31;4775538;30;20031;-81
2021/10/13 22:57:54;;;;;;;1.88;0.68;;;;;;;9.03;82.13;101266.34;4766341;30;20097;-81
2021/10/13 23:00:20;;;;;;;3.15;0.80;;;;;;;8.77;82.93;101235.28;4776753;30;20383;-81
2021/10/13 23:02:45;;;;;;;2.97;0.90;;;;;;;8.79;83.27;101252.03;4790190;30;20110;-81
2021/10/13 23:05:11;;;;;;;2.33;0.68;;;;;;;8.90;83.21;101262.38;4766321;30;20421;-82
2021/10/13 23:07:36;;;;;;;2.28;0.70;;;;;;;8.89;84.09;101268.75;4779152;30;20362;-81
2021/10/13 23:10:04;;;;;;;4.32;0.90;;;;;;;8.89;84.43;101259.88;4786329;30;20069;-82
2021/10/13 23:12:30;;;;;;;2.92;0.80;;;;;;;8.88;85.23;101261.72;4793060;30;20129;-81
2021/10/13 23:14:57;;;;;;;2.78;0.93;;;;;;;8.85;86.10;101253.19;4787389;30;20130;-81
2021/10/13 23:17:22;;;;;;;1.65;0.73;;;;;;;8.87;87.08;101257.38;4783849;30;20011;-81
2021/10/13 23:19:48;;;;;;;3.83;0.90;;;;;;;8.77;88.12;101239.81;4797384;30;20173;-82
2021/10/13 23:22:13;;;;;;;3.95;0.73;;;;;;;8.85;88.44;101262.09;4797649;30;20035;-80
2021/10/13 23:24:39;;;;;;;3.65;0.68;;;;;;;8.87;88.56;101259.22;4772797;30;20074;-82
2021/10/13 23:27:04;;;;;;;1.70;0.70;;;;;;;8.89;88.93;101258.03;4802837;30;20460;-82
2021/10/13 23:29:30;;;;;;;2.33;0.70;;;;;;;8.92;89.75;101257.66;4791266;30;20035;-82
2021/10/13 23:31:56;;;;;;;3.80;0.70;;;;;;;8.86;89.99;101254.88;4787153;30;20027;-81
2021/10/13 23:34:22;;;;;;;5.82;0.85;;;;;;;8.97;90.68;101264.34;4779675;30;20089;-81
2021/10/13 23:36:48;;;;;;;3.67;0.90;;;;;;;8.98;91.28;101258.81;4761889;30;20041;-81
2021/10/13 23:39:13;;;;;;;2.58;0.75;;;;;;;8.98;91.38;101249.94;4777499;30;20552;-82
2021/10/13 23:41:39;;;;;;;3.00;0.80;;;;;;;8.91;91.80;101247.97;4766079;30;20074;-81
2021/10/13 23:44:04;;;;;;;6.22;1.10;;;;;;;8.89;91.88;101233.03;4775043;30;20119;-81
2021/10/13 23:46:30;;;;;;;4.72;0.93;;;;;;;8.98;93.04;101250.78;4763116;30;20055;-81
2021/10/13 23:48:55;;;;;;;3.40;0.82;;;;;;;8.99;93.06;101246.22;4780707;30;20023;-82
2021/10/13 23:51:21;;;;;;;4.50;1.40;;;;;;;9.01;93.82;101249.59;4787134;30;20036;-82
2021/10/13 23:53:46;;;;;;;4.43;0.73;;;;;;;8.83;94.36;101215.78;4760207;30;20035;-81
2021/10/13 23:56:12;;;;;;;5.68;0.95;;;;;;;9.02;94.87;101240.50;4795326;30;20027;-81
2021/10/13 23:58:37;;;;;;;1.98;0.70;;;;;;;9.02;95.19;101238.66;4789588;30;20115;-82
